Terminal Aerodrome Forecast
Issued by NWS

Home | Current Version | Previous Version | Text Only | Print | Product List | Glossary On
Versions: 1 2 3 4 5 6 7 8 9 10 11 12 13 14 15 16 17 18
000
FTUS43 KLSX 130300 AAB
TAFCPS
TAF AMD
KCPS 130351Z 1304/1324 36008KT P6SM SCT012 OVC030
     FM130800 34008KT P6SM SCT030
     FM131500 04008KT P6SM SKC=

USA.gov is the U.S. government's official web portal to all federal, state and local government web resources and services.